createdAt,value
2023-05-18T00:00:02.182Z,1020.11
2023-05-18T00:01:01.737Z,1020.04
2023-05-18T00:02:01.922Z,1020.05
2023-05-18T00:03:02.275Z,1020.07
2023-05-18T00:04:02.472Z,1020.04
2023-05-18T00:05:03.229Z,1020.04
2023-05-18T00:06:02.737Z,1020.08
2023-05-18T00:07:04.690Z,1020.13
2023-05-18T00:08:03.087Z,1020.10
2023-05-18T00:09:03.153Z,1020.08
2023-05-18T00:10:03.358Z,1020.10
2023-05-18T00:11:05.055Z,1020.10
2023-05-18T00:12:04.212Z,1020.13
2023-05-18T00:13:05.184Z,1020.15
2023-05-18T00:14:04.028Z,1020.11
2023-05-18T00:15:04.681Z,1020.11
2023-05-18T00:16:05.262Z,1020.11
2023-05-18T00:17:05.185Z,1020.11
2023-05-18T00:18:04.927Z,1020.16
2023-05-18T00:19:04.993Z,1020.11
2023-05-18T00:20:05.182Z,1020.11
2023-05-18T00:21:05.385Z,1020.17
2023-05-18T00:22:06.186Z,1020.09
2023-05-18T00:23:05.861Z,1020.23
2023-05-18T00:24:06.005Z,1020.18
2023-05-18T00:25:07.745Z,1020.19
2023-05-18T00:26:07.184Z,1020.15
2023-05-18T00:27:06.547Z,1020.22
2023-05-18T00:28:06.716Z,1020.24
2023-05-18T00:29:07.690Z,1020.22
2023-05-18T00:30:07.053Z,1020.22
2023-05-18T00:31:07.249Z,1020.31
2023-05-18T00:32:08.234Z,1020.24
2023-05-18T00:33:07.664Z,1020.26
2023-05-18T00:34:07.761Z,1020.28
2023-05-18T00:35:08.693Z,1020.28
2023-05-18T00:36:08.063Z,1020.30
2023-05-18T00:37:08.737Z,1020.34
2023-05-18T00:38:08.356Z,1020.29
2023-05-18T00:39:08.746Z,1020.36
2023-05-18T00:40:08.640Z,1020.35
2023-05-18T00:41:09.795Z,1020.33
2023-05-18T00:42:10.202Z,1020.37
2023-05-18T00:43:09.705Z,1020.35
2023-05-18T00:44:10.197Z,1020.35
2023-05-18T00:45:09.551Z,1020.29
2023-05-18T00:46:10.767Z,1020.34
2023-05-18T00:47:09.827Z,1020.35
2023-05-18T00:48:09.952Z,1020.40
2023-05-18T00:49:10.106Z,1020.40
2023-05-18T00:50:10.295Z,1020.33
2023-05-18T00:51:10.459Z,1020.36
2023-05-18T00:52:12.198Z,1020.35
2023-05-18T00:53:10.831Z,1020.40
2023-05-18T00:54:11.717Z,1020.35
2023-05-18T00:55:11.751Z,1020.38
2023-05-18T00:56:11.371Z,1020.40
2023-05-18T00:57:12.067Z,1020.35
2023-05-18T00:58:11.680Z,1020.41
2023-05-18T00:59:12.037Z,1020.42
2023-05-18T01:00:11.964Z,1020.35
2023-05-18T01:01:12.213Z,1020.39
2023-05-18T01:02:12.345Z,1020.40
2023-05-18T01:03:13.410Z,1020.49
2023-05-18T01:04:13.276Z,1020.47
2023-05-18T01:05:13.746Z,1020.52
2023-05-18T01:06:13.037Z,1020.48
2023-05-18T01:07:14.069Z,1020.39
2023-05-18T01:08:14.243Z,1020.48
2023-05-18T01:09:13.603Z,1020.46
2023-05-18T01:10:13.640Z,1020.54
2023-05-18T01:11:14.793Z,1020.46
2023-05-18T01:12:14.708Z,1020.52
2023-05-18T01:13:14.709Z,1020.49
2023-05-18T01:14:17.216Z,1020.55
2023-05-18T01:15:14.603Z,1020.56
2023-05-18T01:16:14.800Z,1020.52
2023-05-18T01:17:15.030Z,1020.53
2023-05-18T01:18:15.161Z,1020.49
2023-05-18T01:19:15.810Z,1020.52
2023-05-18T01:20:15.414Z,1020.48
2023-05-18T01:21:15.606Z,1020.50
2023-05-18T01:22:15.785Z,1020.49
2023-05-18T01:23:15.976Z,1020.54
2023-05-18T01:24:16.204Z,1020.47
2023-05-18T01:25:17.232Z,1020.59
2023-05-18T01:26:16.486Z,1020.59
2023-05-18T01:27:16.704Z,1020.53
2023-05-18T01:28:17.709Z,1020.52
2023-05-18T01:29:17.709Z,1020.55
2023-05-18T01:30:17.295Z,1020.52
2023-05-18T01:31:18.388Z,1020.52
2023-05-18T01:32:18.251Z,1020.48
2023-05-18T01:33:18.269Z,1020.50
2023-05-18T01:34:18.715Z,1020.56
2023-05-18T01:35:18.180Z,1020.56
2023-05-18T01:36:18.387Z,1020.52
2023-05-18T01:37:18.602Z,1020.55
2023-05-18T01:38:18.806Z,1020.50
2023-05-18T01:39:19.715Z,1020.54
2023-05-18T01:40:19.137Z,1020.51
2023-05-18T01:41:19.326Z,1020.54
2023-05-18T01:42:19.558Z,1020.60
2023-05-18T01:43:19.816Z,1020.62
2023-05-18T01:44:20.719Z,1020.56
2023-05-18T01:45:20.722Z,1020.50
2023-05-18T01:46:20.293Z,1020.54
2023-05-18T01:47:20.774Z,1020.55
2023-05-18T01:48:21.256Z,1020.56
2023-05-18T01:49:21.711Z,1020.51
2023-05-18T01:50:20.867Z,1020.55
2023-05-18T01:51:22.238Z,1020.58
2023-05-18T01:52:21.362Z,1020.61
2023-05-18T01:53:21.436Z,1020.62
2023-05-18T01:54:22.253Z,1020.67
2023-05-18T01:55:21.783Z,1020.65
2023-05-18T01:56:22.008Z,1020.64
2023-05-18T01:57:22.210Z,1020.63
2023-05-18T01:58:23.291Z,1020.63
2023-05-18T01:59:23.213Z,1020.65
2023-05-18T02:00:23.258Z,1020.71
2023-05-18T02:01:23.055Z,1020.67
2023-05-18T02:02:23.813Z,1020.69
2023-05-18T02:03:23.875Z,1020.72
2023-05-18T02:04:23.427Z,1020.74
2023-05-18T02:05:23.589Z,1020.77
2023-05-18T02:06:24.712Z,1020.72
2023-05-18T02:07:23.939Z,1020.78
2023-05-18T02:08:24.071Z,1020.73
2023-05-18T02:09:24.245Z,1020.72
2023-05-18T02:10:24.426Z,1020.72
2023-05-18T02:11:24.586Z,1020.78
2023-05-18T02:12:24.779Z,1020.78
2023-05-18T02:13:24.913Z,1020.75
2023-05-18T02:14:25.043Z,1020.76
2023-05-18T02:15:25.209Z,1020.77
2023-05-18T02:16:25.421Z,1020.78
2023-05-18T02:17:26.361Z,1020.74
2023-05-18T02:18:26.213Z,1020.80
2023-05-18T02:19:25.945Z,1020.77
2023-05-18T02:20:27.428Z,1020.76
2023-05-18T02:21:26.315Z,1020.82
2023-05-18T02:22:28.221Z,1020.81
2023-05-18T02:23:26.594Z,1020.80
2023-05-18T02:24:26.712Z,1020.74
2023-05-18T02:25:26.862Z,1020.81
2023-05-18T02:26:27.007Z,1020.78
2023-05-18T02:27:27.169Z,1020.78
2023-05-18T02:28:28.304Z,1020.83
2023-05-18T02:29:28.261Z,1020.80
2023-05-18T02:30:28.581Z,1020.79
2023-05-18T02:31:27.832Z,1020.82
2023-05-18T02:32:28.094Z,1020.83
2023-05-18T02:33:28.170Z,1020.82
2023-05-18T02:34:28.316Z,1020.85
2023-05-18T02:35:29.396Z,1020.84
2023-05-18T02:36:30.078Z,1020.84
2023-05-18T02:37:29.712Z,1020.86
2023-05-18T02:38:28.977Z,1020.84
2023-05-18T02:39:29.148Z,1020.83
2023-05-18T02:40:30.258Z,1020.88
2023-05-18T02:41:29.499Z,1020.87
2023-05-18T02:42:29.633Z,1020.85
2023-05-18T02:43:29.801Z,1020.91
2023-05-18T02:44:29.998Z,1020.94
2023-05-18T02:45:30.960Z,1020.92
2023-05-18T02:46:31.297Z,1020.87
2023-05-18T02:47:31.264Z,1020.88
2023-05-18T02:48:31.799Z,1020.92
2023-05-18T02:49:32.726Z,1020.91
2023-05-18T02:50:31.251Z,1020.92
2023-05-18T02:51:32.266Z,1020.95
2023-05-18T02:52:31.682Z,1020.87
2023-05-18T02:53:31.883Z,1020.88
2023-05-18T02:54:32.762Z,1020.94
2023-05-18T02:55:32.523Z,1020.92
2023-05-18T02:56:34.219Z,1020.89
2023-05-18T02:57:32.761Z,1020.92
2023-05-18T02:58:32.974Z,1020.89
2023-05-18T02:59:33.184Z,1020.92
2023-05-18T03:00:34.221Z,1020.85
2023-05-18T03:01:34.295Z,1020.91
2023-05-18T03:02:35.361Z,1020.95
2023-05-18T03:03:34.814Z,1020.92
2023-05-18T03:04:34.126Z,1020.96
2023-05-18T03:05:35.224Z,1020.95
2023-05-18T03:06:35.296Z,1021.03
2023-05-18T03:07:34.681Z,1020.96
2023-05-18T03:08:34.893Z,1020.98
2023-05-18T03:09:35.089Z,1021.04
2023-05-18T03:10:35.243Z,1021.07
2023-05-18T03:11:36.727Z,1021.04
2023-05-18T03:12:35.627Z,1021.03
2023-05-18T03:13:36.767Z,1021.05
2023-05-18T03:14:35.940Z,1021.02
2023-05-18T03:15:36.121Z,1021.00
2023-05-18T03:16:37.301Z,1021.10
2023-05-18T03:17:36.483Z,1021.09
2023-05-18T03:18:36.610Z,1021.10
2023-05-18T03:19:36.773Z,1021.07
2023-05-18T03:20:37.735Z,1021.17
2023-05-18T03:21:37.738Z,1021.15
2023-05-18T03:22:37.284Z,1021.10
2023-05-18T03:23:37.455Z,1021.15
2023-05-18T03:24:37.633Z,1021.13
2023-05-18T03:25:37.797Z,1021.12
2023-05-18T03:26:37.988Z,1021.20
2023-05-18T03:27:38.770Z,1021.18
2023-05-18T03:28:39.740Z,1021.20
2023-05-18T03:29:38.524Z,1021.15
2023-05-18T03:30:38.726Z,1021.19
2023-05-18T03:31:38.935Z,1021.15
2023-05-18T03:32:39.795Z,1021.17
2023-05-18T03:33:39.269Z,1021.16
2023-05-18T03:34:39.436Z,1021.26
2023-05-18T03:35:39.576Z,1021.19
2023-05-18T03:36:39.736Z,1021.27
2023-05-18T03:37:40.596Z,1021.16
2023-05-18T03:38:40.147Z,1021.16
2023-05-18T03:39:40.355Z,1021.21
2023-05-18T03:40:41.241Z,1021.17
2023-05-18T03:41:40.780Z,1021.27
2023-05-18T03:42:40.981Z,1021.17
2023-05-18T03:43:41.744Z,1021.22
2023-05-18T03:44:43.247Z,1021.20
2023-05-18T03:45:41.642Z,1021.19
2023-05-18T03:46:41.978Z,1021.18
2023-05-18T03:47:42.025Z,1021.16
2023-05-18T03:48:42.239Z,1021.19
2023-05-18T03:49:44.102Z,1021.17
2023-05-18T03:50:43.243Z,1021.19
2023-05-18T03:51:43.740Z,1021.23
2023-05-18T03:52:43.601Z,1021.21
2023-05-18T03:53:43.112Z,1021.17
2023-05-18T03:54:43.272Z,1021.20
2023-05-18T03:55:45.743Z,1021.20
2023-05-18T03:56:43.614Z,1021.17
2023-05-18T03:57:44.744Z,1021.15
2023-05-18T03:58:44.745Z,1021.18
2023-05-18T03:59:44.111Z,1021.15
2023-05-18T04:00:44.267Z,1021.19
2023-05-18T04:01:45.381Z,1021.18
2023-05-18T04:02:45.389Z,1021.17
2023-05-18T04:03:45.353Z,1021.16
2023-05-18T04:04:45.748Z,1021.15
2023-05-18T04:05:45.781Z,1021.19
2023-05-18T04:06:45.292Z,1021.14
2023-05-18T04:07:46.240Z,1021.20
2023-05-18T04:08:46.627Z,1021.09
2023-05-18T04:09:45.772Z,1021.15
2023-05-18T04:10:45.937Z,1021.17
2023-05-18T04:11:46.812Z,1021.14
2023-05-18T04:12:46.373Z,1021.16
2023-05-18T04:13:46.537Z,1021.13
2023-05-18T04:14:46.748Z,1021.14
2023-05-18T04:15:46.913Z,1021.10
2023-05-18T04:16:47.940Z,1021.04
2023-05-18T04:17:49.302Z,1021.11
2023-05-18T04:18:48.265Z,1021.09
2023-05-18T04:19:47.751Z,1021.06
2023-05-18T04:20:47.940Z,1021.04
2023-05-18T04:21:48.133Z,1020.99
2023-05-18T04:22:50.751Z,1021.07
2023-05-18T04:23:48.510Z,1021.00
2023-05-18T04:24:49.763Z,1021.00
2023-05-18T04:25:48.898Z,1021.04
2023-05-18T04:26:49.094Z,1021.02
2023-05-18T04:27:51.479Z,1021.02
2023-05-18T04:28:50.793Z,1020.97
2023-05-18T04:29:49.685Z,1020.96
2023-05-18T04:30:50.745Z,1020.95
2023-05-18T04:31:50.796Z,1020.98
2023-05-18T04:32:50.814Z,1021.01
2023-05-18T04:33:50.466Z,1020.97
2023-05-18T04:34:51.253Z,1020.99
2023-05-18T04:35:50.661Z,1020.90
2023-05-18T04:36:50.830Z,1020.90
2023-05-18T04:37:51.011Z,1020.88
2023-05-18T04:38:51.162Z,1020.78
2023-05-18T04:39:52.282Z,1020.75
2023-05-18T04:40:51.552Z,1020.73
2023-05-18T04:41:51.743Z,1020.63
2023-05-18T04:42:51.963Z,1020.48
2023-05-18T04:43:52.110Z,1020.43
2023-05-18T04:44:53.249Z,1020.34
2023-05-18T04:45:52.528Z,1019.93
2023-05-18T04:46:53.748Z,1019.62
2023-05-18T04:47:52.945Z,1019.51
2023-05-18T04:48:53.038Z,1019.44
2023-05-18T04:49:53.753Z,1019.53
2023-05-18T04:50:53.402Z,1019.54
2023-05-18T04:51:53.797Z,1019.40
2023-05-18T04:52:53.883Z,1019.36
2023-05-18T04:53:53.910Z,1019.24
2023-05-18T04:54:54.070Z,1019.14
2023-05-18T04:55:54.228Z,1019.16
2023-05-18T04:56:54.384Z,1019.08
2023-05-18T04:57:55.754Z,1018.96
2023-05-18T04:58:54.789Z,1019.07
2023-05-18T04:59:55.803Z,1019.16
2023-05-18T05:00:55.768Z,1019.25
2023-05-18T05:01:55.486Z,1019.34
2023-05-18T05:02:55.940Z,1019.36
2023-05-18T05:03:58.254Z,1019.39
2023-05-18T05:04:55.971Z,1019.43
2023-05-18T05:05:56.105Z,1019.50
2023-05-18T05:06:57.254Z,1019.46
2023-05-18T05:07:57.289Z,1019.54
2023-05-18T05:08:56.648Z,1019.54
2023-05-18T05:09:56.841Z,1019.54
2023-05-18T05:10:56.989Z,1019.59
2023-05-18T05:11:57.748Z,1019.62
2023-05-18T05:12:57.295Z,1019.54
2023-05-18T05:13:57.439Z,1019.55
2023-05-18T05:14:58.294Z,1019.55
2023-05-18T05:15:57.850Z,1019.52
2023-05-18T05:16:58.055Z,1019.51
2023-05-18T05:17:58.278Z,1019.43
2023-05-18T05:18:58.464Z,1019.25
2023-05-18T05:19:58.646Z,1019.10
2023-05-18T05:20:58.828Z,1019.02
2023-05-18T05:22:00.249Z,1019.01
2023-05-18T05:22:59.176Z,1019.03
2023-05-18T05:24:00.250Z,1018.96
2023-05-18T05:24:59.483Z,1018.97
2023-05-18T05:25:59.630Z,1019.04
2023-05-18T05:27:00.749Z,1019.04
2023-05-18T05:28:00.000Z,1019.04
2023-05-18T05:29:00.163Z,1019.04
2023-05-18T05:30:00.327Z,1019.12
2023-05-18T05:31:01.152Z,1019.09
2023-05-18T05:32:00.776Z,1019.15
2023-05-18T05:33:00.864Z,1019.18
2023-05-18T05:34:01.329Z,1019.20
2023-05-18T05:35:02.114Z,1019.09
2023-05-18T05:36:01.498Z,1019.09
2023-05-18T05:37:01.676Z,1019.08
2023-05-18T05:38:01.857Z,1019.05
2023-05-18T05:39:03.261Z,1019.07
2023-05-18T05:40:02.161Z,1019.02
2023-05-18T05:41:02.348Z,1019.07
2023-05-18T05:42:02.513Z,1019.06
2023-05-18T05:43:03.259Z,1019.04
2023-05-18T05:44:02.780Z,1019.02
2023-05-18T05:45:03.819Z,1019.00
2023-05-18T05:46:03.096Z,1019.05
2023-05-18T05:47:04.329Z,1019.01
2023-05-18T05:48:03.408Z,1019.05
2023-05-18T05:49:03.569Z,1019.04
2023-05-18T05:50:03.731Z,1018.98
2023-05-18T05:51:03.916Z,1018.98
2023-05-18T05:52:04.746Z,1018.95
2023-05-18T05:53:04.228Z,1018.93
2023-05-18T05:54:05.199Z,1018.93
2023-05-18T05:55:05.578Z,1018.85
2023-05-18T05:56:04.701Z,1018.92
2023-05-18T05:57:04.942Z,1018.82
2023-05-18T05:58:05.080Z,1018.83
2023-05-18T05:59:06.221Z,1018.78
2023-05-18T06:00:05.338Z,1018.77
2023-05-18T06:01:06.259Z,1018.73
2023-05-18T06:02:05.745Z,1018.75
2023-05-18T06:03:05.970Z,1018.81
2023-05-18T06:04:06.048Z,1018.72
2023-05-18T06:05:06.228Z,1018.70
2023-05-18T06:06:06.407Z,1018.74
2023-05-18T06:07:06.599Z,1018.72
2023-05-18T06:08:07.754Z,1018.72
2023-05-18T06:09:06.996Z,1018.67
2023-05-18T06:10:07.759Z,1018.65
2023-05-18T06:11:09.354Z,1018.62
2023-05-18T06:12:08.266Z,1018.56
2023-05-18T06:13:08.756Z,1018.63
2023-05-18T06:14:07.907Z,1018.49
2023-05-18T06:15:08.769Z,1018.45
2023-05-18T06:16:08.321Z,1018.46
2023-05-18T06:17:08.413Z,1018.50
2023-05-18T06:18:09.547Z,1018.48
2023-05-18T06:19:08.790Z,1018.49
2023-05-18T06:20:08.939Z,1018.61
2023-05-18T06:21:09.105Z,1018.53
2023-05-18T06:22:09.258Z,1018.43
2023-05-18T06:23:09.454Z,1018.40
2023-05-18T06:24:10.256Z,1018.49
2023-05-18T06:25:09.777Z,1018.45
2023-05-18T06:26:09.940Z,1018.37
2023-05-18T06:27:10.766Z,1018.41
2023-05-18T06:28:10.355Z,1018.41
2023-05-18T06:29:10.535Z,1018.47
2023-05-18T06:30:10.731Z,1018.46
2023-05-18T06:31:12.768Z,1018.47
2023-05-18T06:32:11.195Z,1018.46
2023-05-18T06:33:11.439Z,1018.48
2023-05-18T06:34:12.325Z,1018.42
2023-05-18T06:35:11.705Z,1018.41
2023-05-18T06:36:11.876Z,1018.44
2023-05-18T06:37:12.037Z,1018.38
2023-05-18T06:38:12.809Z,1018.37
2023-05-18T06:39:13.335Z,1018.44
2023-05-18T06:40:12.588Z,1018.45
2023-05-18T06:41:12.708Z,1018.45
2023-05-18T06:42:13.762Z,1018.45
2023-05-18T06:43:13.811Z,1018.40
2023-05-18T06:44:14.270Z,1018.49
2023-05-18T06:45:13.368Z,1018.39
2023-05-18T06:46:13.550Z,1018.45
2023-05-18T06:47:13.840Z,1018.46
2023-05-18T06:48:13.952Z,1018.40
2023-05-18T06:49:14.782Z,1018.41
2023-05-18T06:50:14.256Z,1018.45
2023-05-18T06:51:14.494Z,1018.48
2023-05-18T06:52:14.824Z,1018.35
2023-05-18T06:53:14.844Z,1018.44
2023-05-18T06:54:15.022Z,1018.38
2023-05-18T06:55:15.374Z,1018.39
2023-05-18T06:56:16.330Z,1018.36
2023-05-18T06:57:15.566Z,1018.33
2023-05-18T06:58:15.696Z,1018.33
2023-05-18T06:59:16.822Z,1018.35
2023-05-18T07:00:16.788Z,1018.29
2023-05-18T07:01:16.350Z,1018.21
2023-05-18T07:02:16.488Z,1018.07
2023-05-18T07:03:16.820Z,1018.04
2023-05-18T07:04:18.282Z,1017.99
2023-05-18T07:05:16.910Z,1017.98
2023-05-18T07:06:17.766Z,1017.83
2023-05-18T07:07:18.296Z,1017.67
2023-05-18T07:08:17.475Z,1017.65
2023-05-18T07:09:17.674Z,1017.62
2023-05-18T07:10:17.847Z,1017.59
2023-05-18T07:11:18.035Z,1017.46
2023-05-18T07:12:18.187Z,1016.82
2023-05-18T07:13:19.280Z,1016.53
2023-05-18T07:14:18.516Z,1016.67
2023-05-18T07:15:18.681Z,1016.72
2023-05-18T07:16:20.348Z,1016.94
2023-05-18T07:17:18.990Z,1016.93
2023-05-18T07:18:19.161Z,1016.97
2023-05-18T07:19:19.378Z,1016.88
2023-05-18T07:20:19.560Z,1016.66
2023-05-18T07:21:19.714Z,1016.75
2023-05-18T07:22:19.905Z,1016.74
2023-05-18T07:23:20.104Z,1016.72
2023-05-18T07:24:20.821Z,1016.84
2023-05-18T07:25:21.360Z,1016.85
2023-05-18T07:26:21.285Z,1016.97
2023-05-18T07:27:20.827Z,1016.85
2023-05-18T07:28:21.838Z,1016.86
2023-05-18T07:29:21.212Z,1016.65
2023-05-18T07:30:22.824Z,1016.43
2023-05-18T07:31:22.333Z,1016.19
2023-05-18T07:32:21.858Z,1016.28
2023-05-18T07:33:22.044Z,1016.41
2023-05-18T07:34:22.240Z,1016.49
2023-05-18T07:35:22.403Z,1016.56
2023-05-18T07:36:23.327Z,1016.58
2023-05-18T07:37:22.724Z,1016.41
2023-05-18T07:38:24.790Z,1016.39
2023-05-18T07:39:24.291Z,1016.53
2023-05-18T07:40:23.193Z,1016.63
2023-05-18T07:41:25.293Z,1016.68
2023-05-18T07:42:24.346Z,1016.73
2023-05-18T07:43:23.786Z,1016.84
2023-05-18T07:44:25.294Z,1016.81
2023-05-18T07:45:24.207Z,1016.77
2023-05-18T07:46:24.473Z,1016.73
2023-05-18T07:47:24.572Z,1016.60
2023-05-18T07:48:24.801Z,1016.51
2023-05-18T07:49:25.000Z,1016.49
2023-05-18T07:50:25.268Z,1016.42
2023-05-18T07:51:25.348Z,1016.11
2023-05-18T07:52:25.537Z,1015.77
2023-05-18T07:53:25.728Z,1015.63
2023-05-18T07:54:26.794Z,1015.81
2023-05-18T07:55:26.349Z,1015.85
2023-05-18T07:56:26.266Z,1015.99
2023-05-18T07:57:26.438Z,1016.03
2023-05-18T07:58:26.603Z,1016.10
2023-05-18T07:59:27.375Z,1016.19
2023-05-18T08:00:27.789Z,1016.28
2023-05-18T08:01:27.150Z,1016.30
2023-05-18T08:02:27.455Z,1016.39
2023-05-18T08:03:28.411Z,1016.51
2023-05-18T08:04:27.772Z,1016.54
2023-05-18T08:05:28.947Z,1016.63
2023-05-18T08:06:28.039Z,1016.64
2023-05-18T08:07:28.210Z,1016.66
2023-05-18T08:08:29.412Z,1016.75
2023-05-18T08:09:28.559Z,1016.72
2023-05-18T08:10:29.293Z,1016.60
2023-05-18T08:11:28.919Z,1016.58
2023-05-18T08:12:29.082Z,1016.58
2023-05-18T08:13:29.804Z,1016.70
2023-05-18T08:14:29.469Z,1016.60
2023-05-18T08:15:29.860Z,1016.71
2023-05-18T08:16:31.817Z,1016.72
2023-05-18T08:17:30.132Z,1016.84
2023-05-18T08:18:30.255Z,1016.75
2023-05-18T08:19:30.439Z,1016.74
2023-05-18T08:20:30.525Z,1016.81
2023-05-18T08:21:30.771Z,1016.71
2023-05-18T08:22:31.797Z,1016.73
2023-05-18T08:23:31.086Z,1016.77
2023-05-18T08:24:31.296Z,1016.90
2023-05-18T08:25:31.672Z,1016.90
2023-05-18T08:26:32.346Z,1016.95
2023-05-18T08:27:32.295Z,1017.00
2023-05-18T08:28:31.990Z,1016.98
2023-05-18T08:29:33.801Z,1016.99
2023-05-18T08:30:33.293Z,1016.96
2023-05-18T08:31:32.427Z,1016.94
2023-05-18T08:32:32.640Z,1016.91
2023-05-18T08:33:33.314Z,1016.84
2023-05-18T08:34:33.377Z,1016.77
2023-05-18T08:35:33.207Z,1016.83
2023-05-18T08:36:33.195Z,1016.75
2023-05-18T08:37:33.359Z,1016.76
2023-05-18T08:38:33.549Z,1016.80
2023-05-18T08:39:34.709Z,1016.69
2023-05-18T08:40:35.300Z,1016.69
2023-05-18T08:41:34.839Z,1016.66
2023-05-18T08:42:48.518Z,1016.65
2023-05-18T08:43:36.432Z,1016.60
2023-05-18T08:44:34.560Z,1016.72
2023-05-18T08:45:34.703Z,1016.71
2023-05-18T08:46:34.874Z,1016.66
2023-05-18T08:47:35.145Z,1016.60
2023-05-18T08:48:35.292Z,1016.61
2023-05-18T08:49:36.421Z,1016.65
2023-05-18T08:50:36.302Z,1016.66
2023-05-18T08:51:37.308Z,1016.54
2023-05-18T08:52:36.092Z,1016.58
2023-05-18T08:53:36.841Z,1016.60
2023-05-18T08:54:36.466Z,1016.34
2023-05-18T08:55:36.598Z,1016.36
2023-05-18T08:56:36.792Z,1016.31
2023-05-18T08:57:37.353Z,1016.31
2023-05-18T08:58:37.142Z,1016.28
2023-05-18T08:59:37.327Z,1016.33
2023-05-18T09:00:38.400Z,1016.33
2023-05-18T09:01:37.790Z,1016.33
2023-05-18T09:02:37.951Z,1016.30
2023-05-18T09:03:38.131Z,1016.32
2023-05-18T09:04:39.843Z,1016.31
2023-05-18T09:05:38.519Z,1016.21
2023-05-18T09:06:39.351Z,1016.27
2023-05-18T09:07:39.806Z,1016.31
2023-05-18T09:08:39.847Z,1016.34
2023-05-18T09:09:39.806Z,1016.28
2023-05-18T09:10:39.342Z,1016.29
2023-05-18T09:11:40.804Z,1016.20
2023-05-18T09:12:40.302Z,1016.25
2023-05-18T09:13:39.817Z,1016.18
2023-05-18T09:14:41.311Z,1016.08
2023-05-18T09:15:40.887Z,1016.04
2023-05-18T09:16:40.331Z,1016.01
2023-05-18T09:17:41.397Z,1015.97
2023-05-18T09:18:41.190Z,1015.95
2023-05-18T09:19:41.394Z,1015.98
2023-05-18T09:20:41.068Z,1015.90
2023-05-18T09:21:41.816Z,1015.91
2023-05-18T09:22:41.472Z,1015.88
2023-05-18T09:23:41.665Z,1015.86
2023-05-18T09:24:42.349Z,1015.81
2023-05-18T09:25:42.009Z,1015.80
2023-05-18T09:26:42.225Z,1015.83
2023-05-18T09:27:44.173Z,1015.77
2023-05-18T09:28:42.551Z,1015.80
2023-05-18T09:29:43.380Z,1015.84
2023-05-18T09:30:42.903Z,1015.97
2023-05-18T09:31:43.142Z,1015.82
2023-05-18T09:32:43.906Z,1015.77
2023-05-18T09:33:44.326Z,1015.73
2023-05-18T09:34:44.316Z,1015.84
2023-05-18T09:35:43.836Z,1015.76
2023-05-18T09:36:44.030Z,1015.91
2023-05-18T09:37:44.186Z,1015.92
2023-05-18T09:38:44.390Z,1015.90
2023-05-18T09:39:44.577Z,1015.78
2023-05-18T09:40:44.683Z,1015.87
2023-05-18T09:41:44.836Z,1015.82
2023-05-18T09:42:45.828Z,1015.84
2023-05-18T09:43:45.379Z,1015.79
2023-05-18T09:44:46.681Z,1015.76
2023-05-18T09:45:46.360Z,1015.77
2023-05-18T09:46:45.918Z,1015.78
2023-05-18T09:47:46.863Z,1015.81
2023-05-18T09:48:46.823Z,1015.79
2023-05-18T09:49:46.491Z,1015.78
2023-05-18T09:50:47.358Z,1015.86
2023-05-18T09:51:46.768Z,1015.98
2023-05-18T09:52:46.914Z,1015.97
2023-05-18T09:53:49.833Z,1015.99
2023-05-18T09:54:48.324Z,1015.90
2023-05-18T09:55:47.456Z,1015.92
2023-05-18T09:56:55.340Z,1015.86
2023-05-18T09:57:50.384Z,1015.92
2023-05-18T09:58:47.870Z,1015.89
2023-05-18T09:59:48.380Z,1015.85
2023-05-18T10:00:48.877Z,1015.85
2023-05-18T10:01:48.430Z,1015.79
2023-05-18T10:02:48.628Z,1015.78
2023-05-18T10:03:48.855Z,1015.84
2023-05-18T10:04:50.112Z,1015.73
2023-05-18T10:05:49.258Z,1015.70
2023-05-18T10:06:49.454Z,1015.54
2023-05-18T10:07:49.640Z,1015.43
2023-05-18T10:08:50.372Z,1015.21
2023-05-18T10:09:50.830Z,1015.25
2023-05-18T10:10:51.830Z,1015.15
2023-05-18T10:11:50.484Z,1015.06
2023-05-18T10:12:51.380Z,1014.96
2023-05-18T10:13:51.866Z,1015.02
2023-05-18T10:14:51.116Z,1015.00
2023-05-18T10:15:51.280Z,1014.95
2023-05-18T10:16:55.212Z,1014.96
2023-05-18T10:17:52.620Z,1015.02
2023-05-18T10:18:52.400Z,1014.96
2023-05-18T10:19:51.939Z,1014.91
2023-05-18T10:20:52.085Z,1014.79
2023-05-18T10:21:52.834Z,1014.69
2023-05-18T10:22:53.336Z,1014.67
2023-05-18T10:23:53.333Z,1014.63
2023-05-18T10:24:52.951Z,1014.61
2023-05-18T10:25:53.875Z,1014.53
2023-05-18T10:26:55.712Z,1014.48
2023-05-18T10:27:53.454Z,1014.59
2023-05-18T10:28:53.672Z,1014.60
2023-05-18T10:29:53.883Z,1014.65
2023-05-18T10:30:53.943Z,1014.61
2023-05-18T10:31:54.094Z,1014.60
2023-05-18T10:32:54.304Z,1014.65
2023-05-18T10:33:54.890Z,1014.66
2023-05-18T10:34:55.341Z,1014.57
2023-05-18T10:35:55.208Z,1014.61
2023-05-18T10:36:54.831Z,1014.53
2023-05-18T10:37:54.997Z,1014.55
2023-05-18T10:38:55.167Z,1014.56
2023-05-18T10:39:55.297Z,1014.57
2023-05-18T10:40:56.352Z,1014.57
2023-05-18T10:41:56.343Z,1014.64
2023-05-18T10:42:56.390Z,1014.65
2023-05-18T10:43:55.928Z,1014.69
2023-05-18T10:44:56.873Z,1014.53
2023-05-18T10:45:57.460Z,1014.52
2023-05-18T10:46:56.539Z,1014.58
2023-05-18T10:47:56.570Z,1014.60
2023-05-18T10:48:56.899Z,1014.56
2023-05-18T10:49:56.972Z,1014.68
2023-05-18T10:50:57.894Z,1014.60
2023-05-18T10:51:57.310Z,1014.60
2023-05-18T10:52:57.503Z,1014.75
2023-05-18T10:53:58.402Z,1014.76
2023-05-18T10:54:57.840Z,1014.80
2023-05-18T10:55:58.855Z,1014.77
2023-05-18T10:56:58.135Z,1014.79
2023-05-18T10:57:58.888Z,1014.80
2023-05-18T10:58:59.410Z,1014.90
2023-05-18T10:59:58.674Z,1014.88
2023-05-18T11:00:59.395Z,1014.86
2023-05-18T11:01:59.087Z,1014.89
2023-05-18T11:02:59.196Z,1014.86
2023-05-18T11:03:59.405Z,1014.86
2023-05-18T11:05:00.412Z,1014.86
2023-05-18T11:06:00.354Z,1014.84
2023-05-18T11:06:59.858Z,1014.90
2023-05-18T11:08:00.891Z,1014.88
2023-05-18T11:09:00.226Z,1014.84
2023-05-18T11:10:01.419Z,1014.97
2023-05-18T11:11:00.577Z,1014.83
2023-05-18T11:12:00.784Z,1014.79
2023-05-18T11:13:02.359Z,1014.89
2023-05-18T11:14:01.125Z,1014.85
2023-05-18T11:15:01.283Z,1014.76
2023-05-18T11:16:01.475Z,1014.82
2023-05-18T11:17:01.649Z,1014.79
2023-05-18T11:18:01.955Z,1014.81
2023-05-18T11:19:03.025Z,1014.79
2023-05-18T11:20:02.244Z,1014.84
2023-05-18T11:21:02.440Z,1014.79
2023-05-18T11:22:03.390Z,1014.77
2023-05-18T11:23:02.822Z,1014.76
2023-05-18T11:24:02.976Z,1014.72
2023-05-18T11:25:03.161Z,1014.83
2023-05-18T11:26:03.334Z,1014.81
2023-05-18T11:27:04.356Z,1014.82
2023-05-18T11:28:03.902Z,1014.77
2023-05-18T11:29:03.953Z,1014.84
2023-05-18T11:30:15.174Z,1014.84
2023-05-18T11:31:06.231Z,1014.76
2023-05-18T11:32:05.254Z,1014.74
2023-05-18T11:33:04.692Z,1014.76
2023-05-18T11:34:05.358Z,1014.84
2023-05-18T11:35:05.005Z,1014.94
2023-05-18T11:36:05.868Z,1014.82
2023-05-18T11:37:06.360Z,1014.78
2023-05-18T11:38:05.623Z,1014.78
2023-05-18T11:39:05.803Z,1014.76
2023-05-18T11:40:10.167Z,1014.71
2023-05-18T11:41:07.175Z,1014.68
2023-05-18T11:42:06.313Z,1014.59
2023-05-18T11:43:07.394Z,1014.59
2023-05-18T11:44:06.755Z,1014.52
2023-05-18T11:45:06.884Z,1014.54
2023-05-18T11:46:07.096Z,1014.44
2023-05-18T11:47:07.340Z,1014.39
2023-05-18T11:48:08.477Z,1014.39
2023-05-18T11:49:09.487Z,1014.42
2023-05-18T11:50:08.876Z,1014.42
2023-05-18T11:51:08.899Z,1014.45
2023-05-18T11:52:08.180Z,1014.41
2023-05-18T11:53:09.855Z,1014.43
2023-05-18T11:54:08.611Z,1014.45
2023-05-18T11:55:08.802Z,1014.35
2023-05-18T11:56:09.970Z,1014.42
2023-05-18T11:57:10.970Z,1014.46
2023-05-18T11:58:10.372Z,1014.56
2023-05-18T11:59:10.357Z,1014.46
2023-05-18T12:00:10.442Z,1014.28
2023-05-18T12:01:09.856Z,1014.27
2023-05-18T12:02:10.991Z,1014.29
2023-05-18T12:03:12.397Z,1014.27
2023-05-18T12:04:10.538Z,1014.25
2023-05-18T12:05:11.424Z,1014.21
2023-05-18T12:06:10.816Z,1014.17
2023-05-18T12:07:11.902Z,1014.07